createdAt,value
2018-08-09T00:02:16.081Z,19.90
2018-08-09T00:04:43.653Z,19.90
2018-08-09T00:07:11.238Z,19.90
2018-08-09T00:09:38.816Z,19.90
2018-08-09T00:12:30.345Z,19.90
2018-08-09T00:14:57.946Z,19.90
2018-08-09T00:17:25.516Z,19.80
2018-08-09T00:19:53.082Z,19.80
2018-08-09T00:22:20.653Z,19.80
2018-08-09T00:24:48.240Z,19.70
2018-08-09T00:27:15.798Z,19.80
2018-08-09T00:29:43.364Z,19.80
2018-08-09T00:32:10.926Z,19.80
2018-08-09T00:34:38.493Z,19.70
2018-08-09T00:37:06.101Z,19.70
2018-08-09T00:39:33.653Z,19.70
2018-08-09T00:42:01.227Z,19.70
2018-08-09T00:44:28.786Z,19.70
2018-08-09T00:46:56.366Z,19.70
2018-08-09T00:49:23.926Z,19.70
2018-08-09T00:51:51.506Z,19.70
2018-08-09T00:54:19.030Z,19.70
2018-08-09T00:56:46.544Z,19.60
2018-08-09T00:59:14.083Z,19.60
2018-08-09T01:01:41.606Z,19.60
2018-08-09T01:04:09.136Z,19.60
2018-08-09T01:06:36.669Z,19.60
2018-08-09T01:09:07.829Z,19.60
2018-08-09T01:11:36.310Z,19.60
2018-08-09T01:14:04.081Z,19.60
2018-08-09T01:16:31.605Z,19.60
2018-08-09T01:19:06.065Z,19.50
2018-08-09T01:21:33.584Z,19.50
2018-08-09T01:24:01.165Z,19.50
2018-08-09T01:26:28.674Z,19.50
2018-08-09T01:28:56.219Z,19.40
2018-08-09T01:31:30.817Z,19.40
2018-08-09T01:33:58.362Z,19.40
2018-08-09T01:36:25.873Z,19.30
2018-08-09T01:38:53.601Z,19.30
2018-08-09T01:41:21.137Z,19.30
2018-08-09T01:43:57.650Z,19.30
2018-08-09T01:46:25.689Z,19.30
2018-08-09T01:48:53.868Z,19.30
2018-08-09T01:51:21.393Z,19.30
2018-08-09T01:53:49.510Z,19.40
2018-08-09T01:56:17.030Z,19.40
2018-08-09T02:01:54.495Z,19.40
2018-08-09T02:04:22.028Z,19.30
2018-08-09T02:06:49.587Z,19.30
2018-08-09T02:09:23.003Z,19.30
2018-08-09T02:11:50.534Z,19.30
2018-08-09T02:14:18.075Z,19.20
2018-08-09T02:16:45.594Z,19.30
2018-08-09T02:19:13.119Z,19.20
2018-08-09T02:21:40.627Z,19.20
2018-08-09T02:24:08.176Z,19.20
2018-08-09T02:26:35.722Z,19.20
2018-08-09T02:29:03.274Z,19.20
2018-08-09T02:31:30.803Z,19.20
2018-08-09T02:33:58.332Z,19.20
2018-08-09T02:36:25.876Z,19.20
2018-08-09T02:38:53.410Z,19.10
2018-08-09T02:41:20.950Z,19.10
2018-08-09T02:43:48.490Z,19.10
2018-08-09T02:46:16.046Z,19.10
2018-08-09T02:48:43.613Z,19.10
2018-08-09T02:51:11.158Z,19.10
2018-08-09T02:53:38.674Z,19.10
2018-08-09T02:56:06.187Z,19.00
2018-08-09T02:58:33.678Z,19.00
2018-08-09T03:01:01.185Z,19.00
2018-08-09T03:03:28.703Z,19.00
2018-08-09T03:05:56.223Z,18.90
2018-08-09T03:08:23.719Z,18.90
2018-08-09T03:10:51.230Z,18.90
2018-08-09T03:13:18.726Z,18.90
2018-08-09T03:15:46.240Z,18.90
2018-08-09T03:18:13.743Z,18.90
2018-08-09T03:20:41.239Z,18.80
2018-08-09T03:23:08.754Z,18.80
2018-08-09T03:25:36.258Z,18.80
2018-08-09T03:28:03.755Z,18.80
2018-08-09T03:30:31.264Z,18.80
2018-08-09T03:32:58.780Z,18.70
2018-08-09T03:35:26.300Z,18.70
2018-08-09T03:37:53.840Z,18.70
2018-08-09T03:40:21.331Z,18.70
2018-08-09T03:42:48.839Z,18.70
2018-08-09T03:45:16.340Z,18.80
2018-08-09T03:47:43.843Z,18.80
2018-08-09T03:50:11.351Z,18.80
2018-08-09T03:52:38.854Z,18.80
2018-08-09T03:55:06.361Z,18.80
2018-08-09T03:57:33.871Z,18.80
2018-08-09T04:00:01.371Z,18.80
2018-08-09T04:02:28.882Z,18.90
2018-08-09T04:04:56.382Z,18.90
2018-08-09T04:07:23.917Z,18.90
2018-08-09T04:09:51.410Z,19.00
2018-08-09T04:12:19.208Z,19.00
2018-08-09T04:14:46.722Z,19.00
2018-08-09T04:17:21.735Z,19.00
2018-08-09T04:19:50.571Z,19.00
2018-08-09T04:22:18.755Z,19.00
2018-08-09T04:24:46.826Z,19.00
2018-08-09T04:27:14.344Z,19.10
2018-08-09T04:29:41.867Z,19.10
2018-08-09T04:32:09.422Z,19.20
2018-08-09T04:34:36.918Z,19.20
2018-08-09T04:37:04.822Z,19.40
2018-08-09T04:39:32.318Z,19.40
2018-08-09T04:41:59.827Z,19.60
2018-08-09T04:44:27.508Z,19.70
2018-08-09T04:46:55.048Z,19.80
2018-08-09T04:49:22.555Z,19.90
2018-08-09T04:51:50.043Z,20.00
2018-08-09T04:54:17.578Z,20.10
2018-08-09T04:56:45.103Z,20.30
2018-08-09T04:59:12.622Z,20.30
2018-08-09T05:01:40.147Z,20.50
2018-08-09T05:04:07.689Z,20.60
2018-08-09T05:06:35.219Z,20.70
2018-08-09T05:09:04.911Z,20.80
2018-08-09T05:11:32.444Z,20.90
2018-08-09T05:13:59.962Z,21.00
2018-08-09T05:16:27.495Z,21.10
2018-08-09T05:18:55.033Z,21.30
2018-08-09T05:21:22.554Z,21.40
2018-08-09T05:23:50.075Z,21.80
2018-08-09T05:26:29.323Z,23.10
2018-08-09T05:28:56.943Z,24.40
2018-08-09T05:31:24.476Z,25.60
2018-08-09T05:33:52.034Z,26.50
2018-08-09T05:36:19.562Z,27.40
2018-08-09T05:38:47.136Z,28.10
2018-08-09T05:41:14.698Z,28.80
2018-08-09T05:43:42.250Z,29.40
2018-08-09T05:46:09.808Z,29.90
2018-08-09T05:48:37.348Z,30.40
2018-08-09T05:51:05.055Z,30.60
2018-08-09T05:53:32.636Z,30.70
2018-08-09T05:56:00.178Z,31.20
2018-08-09T05:58:27.716Z,31.70
2018-08-09T06:00:55.255Z,32.10
2018-08-09T06:03:22.838Z,32.50
2018-08-09T06:05:50.414Z,32.80
2018-08-09T06:08:17.916Z,33.20
2018-08-09T06:10:45.438Z,33.60
2018-08-09T06:13:13.089Z,33.90
2018-08-09T06:15:40.751Z,34.20
2018-08-09T06:18:08.288Z,34.40
2018-08-09T06:20:35.851Z,34.60
2018-08-09T06:23:03.387Z,34.80
2018-08-09T06:25:30.914Z,35.10
2018-08-09T06:27:58.446Z,35.20
2018-08-09T06:30:25.996Z,35.40
2018-08-09T06:32:53.511Z,35.50
2018-08-09T06:35:21.046Z,35.60
2018-08-09T06:37:48.588Z,35.80
2018-08-09T06:40:16.122Z,36.00
2018-08-09T06:42:44.207Z,36.00
2018-08-09T06:45:11.886Z,36.10
2018-08-09T06:47:39.476Z,36.20
2018-08-09T06:50:08.136Z,36.20
2018-08-09T06:52:35.878Z,36.20
2018-08-09T06:55:03.804Z,36.50
2018-08-09T06:57:31.322Z,36.60
2018-08-09T06:59:58.869Z,36.70
2018-08-09T07:02:26.415Z,36.70
2018-08-09T07:04:53.959Z,36.80
2018-08-09T07:07:21.559Z,36.80
2018-08-09T07:09:49.095Z,36.70
2018-08-09T07:12:16.622Z,36.70
2018-08-09T07:14:44.154Z,36.70
2018-08-09T07:17:11.686Z,36.70
2018-08-09T07:19:39.210Z,36.70
2018-08-09T07:22:06.769Z,36.60
2018-08-09T07:24:34.322Z,36.60
2018-08-09T07:27:01.893Z,36.60
2018-08-09T07:29:29.430Z,36.60
2018-08-09T07:31:56.971Z,36.40
2018-08-09T07:34:24.505Z,36.20
2018-08-09T07:36:52.035Z,36.20
2018-08-09T07:39:19.593Z,36.20
2018-08-09T07:41:47.123Z,36.20
2018-08-09T07:44:14.642Z,36.00
2018-08-09T07:46:42.170Z,36.00
2018-08-09T07:49:09.686Z,35.90
2018-08-09T07:51:37.219Z,35.90
2018-08-09T07:54:04.757Z,35.90
2018-08-09T07:56:32.292Z,35.90
2018-08-09T07:58:59.814Z,35.80
2018-08-09T08:01:27.352Z,35.60
2018-08-09T08:03:54.863Z,35.50
2018-08-09T08:06:22.402Z,35.50
2018-08-09T08:08:49.927Z,35.40
2018-08-09T08:11:17.480Z,35.40
2018-08-09T08:13:44.999Z,35.60
2018-08-09T08:16:12.535Z,35.60
2018-08-09T08:18:40.077Z,35.50
2018-08-09T08:21:07.613Z,35.50
2018-08-09T08:23:35.126Z,35.60
2018-08-09T08:26:02.666Z,35.70
2018-08-09T08:28:30.195Z,35.70
2018-08-09T08:30:57.715Z,35.70
2018-08-09T08:33:25.248Z,35.80
2018-08-09T08:35:52.758Z,35.90
2018-08-09T08:38:20.338Z,35.90
2018-08-09T08:40:47.854Z,36.10
2018-08-09T08:43:15.403Z,36.30
2018-08-09T08:45:42.931Z,36.40
2018-08-09T08:48:10.468Z,36.40
2018-08-09T08:50:38.000Z,36.40
2018-08-09T08:53:05.590Z,36.50
2018-08-09T08:55:33.104Z,36.60
2018-08-09T08:58:00.642Z,36.90
2018-08-09T09:00:28.190Z,37.10
2018-08-09T09:02:55.751Z,37.30
2018-08-09T09:05:23.287Z,37.50
2018-08-09T09:07:50.837Z,37.70
2018-08-09T09:10:18.360Z,37.80
2018-08-09T09:12:45.915Z,38.00
2018-08-09T09:15:14.574Z,38.20
2018-08-09T09:17:42.865Z,38.20
2018-08-09T09:20:15.633Z,38.40
2018-08-09T09:22:43.603Z,38.30
2018-08-09T09:25:11.471Z,38.40
2018-08-09T09:27:39.015Z,38.60
2018-08-09T09:30:10.167Z,38.90
2018-08-09T09:32:37.692Z,39.10
2018-08-09T09:35:05.617Z,39.40
2018-08-09T09:37:33.187Z,39.50
2018-08-09T09:40:00.809Z,39.60
2018-08-09T09:42:28.330Z,39.60
2018-08-09T09:44:55.866Z,39.70
2018-08-09T09:47:23.402Z,39.90
2018-08-09T09:49:50.983Z,40.00
2018-08-09T09:52:18.502Z,40.30
2018-08-09T09:54:46.039Z,40.40
2018-08-09T09:57:13.545Z,40.50
2018-08-09T09:59:41.057Z,40.70
2018-08-09T10:02:08.576Z,40.60
2018-08-09T10:04:36.090Z,40.60
2018-08-09T10:07:03.662Z,40.70
2018-08-09T10:09:31.144Z,40.80
2018-08-09T10:11:58.634Z,40.80
2018-08-09T10:14:26.146Z,40.90
2018-08-09T10:16:53.642Z,41.10
2018-08-09T10:19:21.154Z,41.20
2018-08-09T10:21:48.646Z,41.30
2018-08-09T10:24:16.147Z,41.20
2018-08-09T10:26:43.642Z,41.30
2018-08-09T10:29:11.171Z,41.40
2018-08-09T10:31:38.743Z,41.50
2018-08-09T10:34:06.281Z,41.40
2018-08-09T10:36:33.867Z,41.40
2018-08-09T10:39:01.378Z,41.50
2018-08-09T10:41:28.874Z,41.60
2018-08-09T10:43:56.366Z,41.50
2018-08-09T10:46:23.891Z,41.50
2018-08-09T10:48:51.458Z,41.50
2018-08-09T10:51:18.988Z,41.50
2018-08-09T10:53:46.523Z,41.60
2018-08-09T10:56:14.071Z,41.60
2018-08-09T10:58:41.654Z,41.60
2018-08-09T11:01:09.199Z,41.70
2018-08-09T11:03:36.722Z,41.70
2018-08-09T11:06:04.262Z,41.70
2018-08-09T11:08:31.781Z,41.60
2018-08-09T11:11:03.964Z,41.50
2018-08-09T11:13:31.493Z,41.50
2018-08-09T11:15:59.029Z,41.60
2018-08-09T11:18:26.550Z,41.90
2018-08-09T11:20:54.092Z,42.10
2018-08-09T11:23:21.619Z,42.10
2018-08-09T11:25:49.165Z,42.20
2018-08-09T11:28:16.678Z,42.20
2018-08-09T11:30:44.207Z,42.20
2018-08-09T11:33:11.729Z,42.30
2018-08-09T11:35:39.263Z,42.30
2018-08-09T11:38:06.779Z,42.10
2018-08-09T11:40:34.306Z,41.80
2018-08-09T11:43:01.848Z,41.30
2018-08-09T11:45:29.388Z,41.20
2018-08-09T11:47:56.914Z,41.20
2018-08-09T11:50:24.434Z,41.40
2018-08-09T11:52:51.964Z,41.20
2018-08-09T11:55:19.482Z,41.10
2018-08-09T11:57:46.978Z,40.90
2018-08-09T12:00:14.501Z,40.80
2018-08-09T12:02:41.994Z,40.90
2018-08-09T12:05:09.520Z,41.10
2018-08-09T12:07:37.036Z,41.20
2018-08-09T12:10:04.614Z,41.00
2018-08-09T12:12:32.131Z,40.60
2018-08-09T12:14:59.688Z,40.20
2018-08-09T12:17:27.219Z,40.40
2018-08-09T12:19:54.751Z,40.80
2018-08-09T12:22:22.258Z,41.20
2018-08-09T12:24:49.771Z,41.60
2018-08-09T12:27:17.312Z,41.80
2018-08-09T12:29:44.814Z,42.00
2018-08-09T12:32:12.323Z,42.10
2018-08-09T12:34:39.868Z,42.40
2018-08-09T12:37:07.424Z,42.60
2018-08-09T12:39:34.941Z,42.60
2018-08-09T12:42:02.488Z,42.70
2018-08-09T12:44:30.072Z,42.80
2018-08-09T12:46:57.610Z,42.80
2018-08-09T12:49:25.346Z,42.70
2018-08-09T12:51:52.901Z,42.20
2018-08-09T12:54:20.449Z,41.80
2018-08-09T12:56:47.978Z,41.70
2018-08-09T12:59:15.489Z,41.70
2018-08-09T13:01:43.000Z,41.80
2018-08-09T13:04:10.535Z,42.00
2018-08-09T13:06:38.034Z,42.20
2018-08-09T13:09:08.654Z,42.40
2018-08-09T13:11:36.175Z,42.50
2018-08-09T13:14:04.436Z,42.60
2018-08-09T13:16:31.953Z,42.10
2018-08-09T13:18:59.467Z,41.90
2018-08-09T13:21:26.993Z,42.10
2018-08-09T13:23:54.516Z,42.20
2018-08-09T13:26:22.024Z,42.30
2018-08-09T13:28:49.556Z,42.40
2018-08-09T13:31:17.087Z,42.40
2018-08-09T13:33:44.648Z,42.50
2018-08-09T13:36:12.150Z,42.60
2018-08-09T13:38:39.655Z,42.70
2018-08-09T13:41:07.163Z,42.70
2018-08-09T13:43:34.676Z,42.70
2018-08-09T13:46:02.204Z,42.60
2018-08-09T13:48:29.746Z,42.60
2018-08-09T13:50:57.275Z,42.60
2018-08-09T13:53:24.793Z,42.60
2018-08-09T13:55:52.424Z,42.80
2018-08-09T13:58:19.996Z,42.90
2018-08-09T14:00:47.546Z,43.00
2018-08-09T14:03:15.096Z,43.00
2018-08-09T14:05:42.647Z,43.00
2018-08-09T14:08:10.224Z,43.20
2018-08-09T14:10:37.751Z,43.00
2018-08-09T14:13:08.747Z,42.70
2018-08-09T14:15:36.291Z,42.50
2018-08-09T14:18:03.851Z,42.40
2018-08-09T14:20:31.379Z,42.60
2018-08-09T14:22:58.921Z,42.60
2018-08-09T14:25:28.503Z,42.50
2018-08-09T14:27:56.059Z,42.50
2018-08-09T14:30:40.766Z,42.40
2018-08-09T14:33:08.320Z,42.30
2018-08-09T14:35:35.834Z,42.10
2018-08-09T14:38:03.385Z,42.20
2018-08-09T14:41:01.111Z,42.10
2018-08-09T14:43:28.677Z,42.10
2018-08-09T14:45:56.238Z,42.10
2018-08-09T14:48:28.787Z,42.10
2018-08-09T14:50:56.337Z,42.00
2018-08-09T14:53:29.035Z,41.90
2018-08-09T14:55:56.587Z,41.90
2018-08-09T14:58:24.180Z,41.70
2018-08-09T15:00:51.719Z,41.60
2018-08-09T15:03:19.275Z,41.60
2018-08-09T15:08:54.129Z,41.20
2018-08-09T15:11:21.688Z,41.10
2018-08-09T15:16:53.451Z,41.10
2018-08-09T15:19:21.001Z,41.20
2018-08-09T15:21:48.542Z,41.00
2018-08-09T15:27:32.289Z,40.50
2018-08-09T15:29:59.827Z,40.20
2018-08-09T15:32:27.367Z,40.10
2018-08-09T15:34:54.910Z,39.90
2018-08-09T15:37:22.455Z,39.50
2018-08-09T15:40:05.350Z,39.10
2018-08-09T15:42:32.896Z,38.60
2018-08-09T15:45:00.423Z,38.20
2018-08-09T15:47:28.034Z,38.30
2018-08-09T15:49:55.514Z,38.20
2018-08-09T15:52:23.044Z,38.20
2018-08-09T15:54:50.570Z,38.30
2018-08-09T15:57:18.140Z,38.40
2018-08-09T15:59:45.631Z,38.50
2018-08-09T16:02:13.162Z,38.60
2018-08-09T16:04:40.701Z,38.80
2018-08-09T16:07:08.213Z,38.90
2018-08-09T16:09:35.710Z,38.90
2018-08-09T16:12:03.264Z,38.90
2018-08-09T16:14:30.775Z,39.00
2018-08-09T16:16:58.303Z,39.00
2018-08-09T16:19:25.811Z,39.00
2018-08-09T16:21:53.333Z,39.00
2018-08-09T16:24:20.862Z,38.80
2018-08-09T16:26:48.393Z,38.50
2018-08-09T16:29:15.917Z,38.20
2018-08-09T16:31:43.429Z,38.00
2018-08-09T16:34:10.942Z,37.80
2018-08-09T16:36:38.469Z,37.60
2018-08-09T16:39:10.298Z,37.50
2018-08-09T16:41:37.815Z,37.40
2018-08-09T16:44:05.367Z,37.20
2018-08-09T16:46:32.878Z,37.10
2018-08-09T16:49:00.409Z,37.00
2018-08-09T16:51:27.937Z,36.80
2018-08-09T16:53:55.547Z,36.40
2018-08-09T16:56:23.111Z,36.10
2018-08-09T16:58:50.672Z,35.80
2018-08-09T17:01:18.202Z,35.50
2018-08-09T17:03:45.742Z,35.30
2018-08-09T17:06:13.282Z,35.10
2018-08-09T17:08:40.831Z,35.00
2018-08-09T17:11:08.359Z,34.90
2018-08-09T17:13:35.911Z,34.90
2018-08-09T17:16:03.500Z,34.80
2018-08-09T17:18:31.095Z,34.70
2018-08-09T17:20:58.660Z,34.70
2018-08-09T17:23:26.234Z,34.70
2018-08-09T17:25:53.785Z,34.70
2018-08-09T17:28:21.330Z,34.80
2018-08-09T17:30:48.904Z,34.80
2018-08-09T17:33:16.442Z,34.90
2018-08-09T17:35:43.980Z,34.80
2018-08-09T17:38:11.519Z,34.80
2018-08-09T17:40:39.060Z,34.80
2018-08-09T17:43:06.592Z,34.70
2018-08-09T17:45:34.904Z,34.60
2018-08-09T17:48:02.989Z,34.50
2018-08-09T17:50:30.555Z,34.40
2018-08-09T17:53:00.064Z,34.30
2018-08-09T17:55:27.618Z,34.10
2018-08-09T17:57:55.135Z,33.90
2018-08-09T18:00:24.767Z,33.70
2018-08-09T18:02:52.640Z,33.50
2018-08-09T18:05:20.175Z,33.20
2018-08-09T18:07:47.763Z,33.00
2018-08-09T18:10:18.133Z,32.70
2018-08-09T18:12:46.242Z,32.40
2018-08-09T18:15:13.874Z,32.10
2018-08-09T18:17:41.429Z,31.80
2018-08-09T18:20:12.859Z,31.60
2018-08-09T18:22:40.783Z,31.30
2018-08-09T18:25:09.696Z,31.10
2018-08-09T18:27:37.319Z,30.80
2018-08-09T18:30:08.659Z,30.60
2018-08-09T18:32:36.396Z,30.40
2018-08-09T18:35:04.843Z,30.20
2018-08-09T18:37:32.361Z,30.10
2018-08-09T18:39:59.898Z,29.90
2018-08-09T18:42:27.417Z,29.80
2018-08-09T18:44:54.939Z,29.70
2018-08-09T18:47:22.462Z,29.50
2018-08-09T18:49:49.971Z,29.50
2018-08-09T18:52:17.471Z,29.50
2018-08-09T18:54:45.017Z,29.50
2018-08-09T18:57:12.543Z,29.50
2018-08-09T18:59:40.087Z,29.50
2018-08-09T19:02:07.631Z,29.40
2018-08-09T19:04:35.183Z,29.20
2018-08-09T19:07:02.712Z,29.10
2018-08-09T19:09:30.247Z,29.00
2018-08-09T19:12:00.075Z,28.80
2018-08-09T19:14:28.623Z,28.70
2018-08-09T19:16:56.319Z,28.60
2018-08-09T19:19:23.851Z,28.40
2018-08-09T19:21:51.411Z,28.40
2018-08-09T19:24:18.979Z,28.30
2018-08-09T19:26:46.606Z,28.30
2018-08-09T19:29:14.371Z,28.30
2018-08-09T19:31:42.256Z,28.30
2018-08-09T19:34:10.082Z,28.30
2018-08-09T19:36:37.956Z,28.30
2018-08-09T19:39:10.718Z,28.30
2018-08-09T19:41:38.889Z,28.30
2018-08-09T19:44:06.811Z,28.30
2018-08-09T19:46:35.042Z,28.30
2018-08-09T19:49:02.966Z,28.20
2018-08-09T19:51:30.840Z,28.20
2018-08-09T19:53:58.937Z,28.30
2018-08-09T19:56:27.255Z,28.30
2018-08-09T19:58:55.089Z,28.30
2018-08-09T20:01:23.138Z,28.30
2018-08-09T20:03:51.049Z,28.30
2018-08-09T20:06:18.869Z,28.10
2018-08-09T20:08:46.714Z,28.10
2018-08-09T20:11:14.477Z,28.00
2018-08-09T20:13:42.328Z,27.90
2018-08-09T20:16:10.207Z,27.80
2018-08-09T20:18:38.100Z,27.70
2018-08-09T20:21:06.332Z,27.60
2018-08-09T20:23:34.270Z,27.50
2018-08-09T20:26:02.272Z,27.40
2018-08-09T20:28:30.135Z,27.40
2018-08-09T20:30:57.989Z,27.30
2018-08-09T20:33:25.776Z,27.20
2018-08-09T20:35:53.626Z,27.10
2018-08-09T20:38:21.459Z,27.00
2018-08-09T20:40:49.336Z,27.00
2018-08-09T20:43:17.244Z,26.90
2018-08-09T20:45:45.181Z,26.70
2018-08-09T20:48:13.020Z,26.60
2018-08-09T20:50:40.894Z,26.50
2018-08-09T20:53:08.748Z,26.30
2018-08-09T20:55:36.531Z,26.20
2018-08-09T20:58:04.619Z,26.10
2018-08-09T21:00:33.615Z,25.90
2018-08-09T21:03:01.918Z,25.80
2018-08-09T21:05:34.338Z,25.70
2018-08-09T21:08:02.148Z,25.70
2018-08-09T21:10:30.355Z,25.50
2018-08-09T21:12:58.455Z,25.50
2018-08-09T21:15:26.420Z,25.40
2018-08-09T21:17:54.248Z,25.30
2018-08-09T21:20:22.112Z,25.20
2018-08-09T21:22:50.433Z,25.00
2018-08-09T21:25:18.506Z,25.00
2018-08-09T21:27:46.819Z,24.80
2018-08-09T21:30:18.723Z,24.80
2018-08-09T21:32:47.033Z,24.70
2018-08-09T21:35:14.913Z,24.70
2018-08-09T21:37:43.209Z,24.70
2018-08-09T21:40:11.944Z,24.50
2018-08-09T21:42:39.757Z,24.40
2018-08-09T21:45:10.636Z,24.40
2018-08-09T21:47:38.479Z,24.20
2018-08-09T21:50:09.420Z,24.10
2018-08-09T21:52:37.473Z,24.00
2018-08-09T21:55:06.070Z,24.00
2018-08-09T21:57:34.235Z,23.90
2018-08-09T22:03:09.640Z,23.80
2018-08-09T22:05:43.129Z,23.70
2018-08-09T22:08:16.665Z,23.70
2018-08-09T22:10:50.248Z,23.70
2018-08-09T22:14:21.657Z,23.60
2018-08-09T22:20:14.409Z,23.60
2018-08-09T22:22:42.392Z,23.50
2018-08-09T22:25:10.304Z,23.50
2018-08-09T22:27:38.171Z,23.50
2018-08-09T22:30:08.275Z,23.50
2018-08-09T22:32:36.253Z,23.50
2018-08-09T22:35:05.124Z,23.50
2018-08-09T22:37:32.984Z,23.50
2018-08-09T22:40:00.847Z,23.40
2018-08-09T22:42:28.667Z,23.40
2018-08-09T22:44:56.520Z,23.40
2018-08-09T22:47:24.384Z,23.40
2018-08-09T22:50:24.035Z,23.30
2018-08-09T22:52:51.954Z,23.30
2018-08-09T22:55:19.872Z,23.30
2018-08-09T22:57:47.815Z,23.20
2018-08-09T23:00:21.451Z,23.30
2018-08-09T23:02:49.387Z,23.30
2018-08-09T23:05:17.330Z,23.30
2018-08-09T23:07:45.188Z,23.30
2018-08-09T23:10:13.118Z,23.20
2018-08-09T23:12:41.260Z,23.20
2018-08-09T23:15:09.540Z,23.20
2018-08-09T23:17:37.349Z,23.20
2018-08-09T23:20:06.332Z,23.20
2018-08-09T23:22:34.224Z,23.30
2018-08-09T23:25:02.161Z,23.30
2018-08-09T23:27:30.031Z,23.30
2018-08-09T23:29:57.853Z,23.40
2018-08-09T23:32:25.747Z,23.40
2018-08-09T23:34:53.645Z,23.40
2018-08-09T23:37:21.468Z,23.30
2018-08-09T23:39:49.344Z,23.20
2018-08-09T23:42:17.255Z,23.10
2018-08-09T23:44:45.111Z,23.10
2018-08-09T23:47:12.990Z,23.00
2018-08-09T23:49:40.836Z,22.90
2018-08-09T23:52:08.733Z,22.90
2018-08-09T23:55:12.271Z,22.80
2018-08-09T23:57:40.205Z,22.70
